Latest Weather Observations for Tidbinbilla

IDN60801

Issued at 6:23 am EDT Thursday 8 December 2022 (issued every 10 minutes, with the page automatically refreshed every 10 minutes)

About weather observations | Map of weather stations | Latest weather observations for NSW | Other Formats
Station Details ID: 250069 Name: TIDBINBILLA (PCS) Lat: -35.46 Lon: 148.94 Height: 883.0 m

Portable automatic weather stations (PAWS) are operated by other organisations, such as Fire and Emergency Services, and are included here by agreement. Portable stations may be deployed to a location for a short period and their location may be subject to change without notice. Wind observations from these stations are provided from heights of either three (3) or ten (10) metres above ground level (AGL).

Data from the previous 72 hours. | See also: Recent months for locations in New South Wales
Date/Time
EDT
Temp
°C
App
Temp
°C
Dew
Point
°C
Rel
Hum
%
Delta-T
°C
Wind Press
QNH
hPa
Press
MSL
hPa
Rain since
9am
mm
Dir  Spd
km/h
Gust
km/h
Spd
kts
Gust
kts
08/06:10am 8.4 1.4 -0.8 52 3.8 SW 26 33 14 18 1006.0 - 0.6
08/06:00am 8.4 1.8 -0.5 53 3.7 SSW 24 28 13 15 1006.0 - 0.6
08/05:50am 8.3 1.7 -0.6 53 3.7 SSW 24 33 13 18 1005.8 - 0.6
08/05:40am 8.1 2.5 0.2 57 3.3 SSW 19 20 10 11 1005.8 - 0.6
08/05:30am 8.7 2.2 0.1 55 3.6 SW 24 30 13 16 1005.7 - 0.6
08/05:20am 8.7 2.5 -0.3 53 3.7 SSW 22 26 12 14 1005.6 - 0.6
08/05:10am 8.8 3.1 0.5 56 3.5 SW 20 24 11 13 1005.5 - 0.6
08/05:00am 9.1 2.6 0.2 53 3.8 SSW 24 30 13 16 1005.5 - 0.6
08/04:50am 8.9 2.8 0.1 54 3.7 SSW 22 26 12 14 1005.4 - 0.6
08/04:40am 8.9 3.2 0.7 56 3.5 SSW 20 26 11 14 1005.3 - 0.6
08/04:30am 9.1 3.7 1.3 58 3.4 SSW 19 22 10 12 1005.2 - 0.6
08/04:20am 9.4 3.4 1.2 56 3.6 SSW 22 26 12 14 1005.0 - 0.6
08/04:10am 9.7 3.7 0.9 54 3.8 SW 22 35 12 19 1004.9 - 0.6
08/04:00am 10.2 2.2 0.4 50 4.2 SW 32 43 17 23 1004.8 - 0.6
08/03:50am 10.6 2.5 -0.2 47 4.6 SW 32 37 17 20 1004.7 - 0.6
08/03:40am 10.8 2.0 -1.0 44 4.9 SW 35 54 19 29 1004.1 - 0.6
08/03:30am 10.8 2.7 -0.1 47 4.7 SSW 32 44 17 24 1004.6 - 0.6
08/03:20am 10.9 4.8 0.5 48 4.5 SSW 22 32 12 17 1004.4 - 0.6
08/03:10am 11.3 6.5 2.4 54 4.0 SW 17 32 9 17 1004.6 - 0.6
08/03:00am 11.4 5.2 2.3 53 4.1 SSW 24 32 13 17 1004.1 - 0.6
08/02:50am 11.8 6.2 3.2 55 4.0 SSW 22 32 12 17 1004.3 - 0.6
08/02:40am 12.0 6.8 3.8 57 3.9 SW 20 24 11 13 1004.5 - 0.6
08/02:30am 12.1 7.6 4.3 59 3.7 SW 17 22 9 12 1004.2 - 0.6
08/02:20am 12.5 8.3 5.6 63 3.4 SW 17 24 9 13 1004.4 - 0.6
08/02:10am 13.0 7.4 5.2 59 3.8 WSW 24 35 13 19 1004.3 - 0.6
08/02:00am 13.1 9.1 6.5 64 3.3 WSW 17 26 9 14 1004.5 - 0.6
08/01:50am 13.3 7.1 6.2 62 3.6 SW 28 44 15 24 1004.8 - 0.6
08/01:40am 13.3 10.3 7.9 70 2.8 WSW 13 24 7 13 1004.6 - 0.6
08/01:30am 13.3 9.2 7.9 70 2.8 SW 19 24 10 13 1004.6 - 0.6
08/01:20am 13.2 9.5 8.1 71 2.7 SW 17 22 9 12 1004.6 - 0.6
08/01:10am 13.3 10.5 8.6 73 2.5 SW 13 24 7 13 1004.6 - 0.6
08/01:00am 13.6 9.5 8.6 72 2.6 SW 20 24 11 13 1004.6 - 0.6
08/12:50am 13.6 9.1 8.7 72 2.6 WSW 22 35 12 19 1004.6 - 0.6
08/12:40am 13.6 11.2 8.8 73 2.5 WSW 11 17 6 9 1004.5 - 0.6
08/12:30am 13.6 10.0 8.5 71 2.7 WSW 17 26 9 14 1004.6 - 0.6
08/12:20am 13.5 10.5 9.4 76 2.2 SW 15 20 8 11 1004.7 - 0.6
08/12:10am 13.6 9.6 9.1 74 2.4 WSW 20 35 11 19 1004.4 - 0.6
08/12:00am 13.5 9.7 9.8 78 2.0 WSW 20 35 11 19 1004.9 - 0.6
 
Date/Time
EDT
Temp
°C
App
Temp
°C
Dew
Point
°C
Rel
Hum
%
Delta-T
°C
Wind Press
QNH
hPa
Press
MSL
hPa
Rain since
9am
mm
Dir  Spd
km/h
Gust
km/h
Spd
kts
Gust
kts
07/11:50pm 13.3 9.7 9.7 79 1.9 SW 19 26 10 14 1004.8 - 0.4
07/11:40pm 13.3 9.6 9.4 77 2.1 WSW 19 28 10 15 1005.2 - 0.4
07/11:30pm 12.8 10.9 10.4 85 1.3 SW 11 17 6 9 1005.2 - 0.4
07/11:20pm 12.8 10.6 10.8 88 1.1 SSW 13 22 7 12 1005.2 - 0.4
07/11:10pm 12.8 11.5 10.1 84 1.5 E 7 11 4 6 1005.0 - 0.4
07/11:00pm 12.6 10.1 9.7 82 1.6 NNE 13 19 7 10 1004.9 - 0.0
07/10:50pm 13.6 12.4 10.2 80 1.8 N 7 19 4 10 1004.9 - 0.0
07/10:40pm 13.8 12.5 9.1 73 2.5 NW 6 11 3 6 1005.2 - 0.0
07/10:30pm 13.9 12.9 8.9 72 2.7 WSW 4 7 2 4 1005.0 - 0.0
07/10:20pm 14.2 12.3 8.9 70 2.8 W 9 13 5 7 1005.2 - 0.0
07/10:10pm 14.0 12.6 8.9 71 2.7 W 6 13 3 7 1005.3 - 0.0
07/10:00pm 14.2 11.1 8.8 70 2.9 W 15 19 8 10 1005.4 - 0.0
07/09:50pm 13.5 10.3 8.4 71 2.7 WSW 15 28 8 15 1005.5 - 0.0
07/09:40pm 13.2 10.8 8.5 73 2.5 WSW 11 17 6 9 1005.4 - 0.0
07/09:30pm 13.4 10.7 8.9 74 2.4 WSW 13 19 7 10 1005.4 - 0.0
07/09:20pm 14.3 10.7 8.5 68 3.1 W 17 24 9 13 1005.5 - 0.0
07/09:10pm 14.3 11.5 6.8 60 3.8 WSW 11 17 6 9 1005.6 - 0.0
07/09:00pm 14.4 11.4 6.2 58 4.1 WSW 11 19 6 10 1005.6 - 0.0
07/08:50pm 14.5 11.9 6.0 56 4.3 WSW 9 17 5 9 1005.3 - 0.0
07/08:40pm 14.8 12.1 5.7 54 4.6 W 9 13 5 7 1005.4 - 0.0
07/08:30pm 14.8 12.0 5.3 53 4.7 W 9 13 5 7 1005.0 - 0.0
07/08:20pm 14.9 12.1 5.2 52 4.8 WNW 9 15 5 8 1004.9 - 0.0
07/08:10pm 15.1 12.0 5.4 52 4.8 NNW 11 17 6 9 1004.9 - 0.0
07/08:00pm 16.0 12.8 5.3 49 5.4 NW 11 13 6 7 1004.8 - 0.0
07/07:50pm 16.8 12.6 3.8 42 6.3 W 15 22 8 12 1004.8 - 0.0
07/07:40pm 17.3 13.7 4.8 43 6.2 W 13 20 7 11 1004.9 - 0.0
07/07:30pm 18.2 14.1 4.6 40 6.8 WNW 15 22 8 12 1004.8 - 0.0
07/07:20pm 18.6 15.3 4.3 38 7.1 WNW 11 22 6 12 1004.8 - 0.0
07/07:10pm 19.7 16.8 4.7 37 7.6 W 9 13 5 7 1004.7 - 0.0
07/07:00pm 20.0 16.9 5.6 39 7.4 W 11 20 6 11 1004.5 - 0.0
07/06:50pm 19.8 14.7 4.1 35 7.9 WSW 20 26 11 14 1004.4 - 0.0
07/06:40pm 19.8 14.2 3.7 34 8.0 WSW 22 32 12 17 1004.3 - 0.0
07/06:30pm 19.9 15.8 4.4 36 7.8 WSW 15 20 8 11 1004.4 - 0.0
07/06:20pm 19.5 14.6 4.1 36 7.7 SW 19 22 10 12 1004.3 - 0.0
07/06:10pm 20.4 15.6 4.6 35 8.0 WSW 19 26 10 14 1004.5 - 0.0
07/06:00pm 19.7 16.0 4.6 37 7.6 WSW 13 20 7 11 1004.5 - 0.0
07/05:50pm 20.4 15.6 4.5 35 8.1 WSW 19 26 10 14 1004.7 - 0.0
07/05:40pm 21.5 18.4 5.6 35 8.3 W 11 19 6 10 1004.5 - 0.0
07/05:30pm 20.8 17.8 5.8 37 7.8 W 11 19 6 10 1004.7 - 0.0
07/05:20pm 21.3 17.8 5.4 35 8.2 WSW 13 19 7 10 1004.5 - 0.0
07/05:10pm 21.5 18.3 5.3 34 8.4 W 11 15 6 8 1004.6 - 0.0
07/05:00pm 21.5 18.4 5.6 35 8.3 W 11 17 6 9 1004.6 - 0.0
07/04:50pm 21.9 17.7 7.3 39 7.9 WSW 19 28 10 15 1004.8 - 0.0
07/04:40pm 21.5 17.4 6.3 37 8.0 WSW 17 30 9 16 1004.8 - 0.0
07/04:30pm 20.5 14.5 5.5 37 7.8 SW 26 35 14 19 1004.6 - 0.0
07/04:20pm 21.3 17.2 6.2 37 8.0 SW 17 20 9 11 1004.6 - 0.0
07/04:10pm 21.2 17.8 5.8 36 8.0 WSW 13 17 7 9 1004.9 - 0.0
07/04:00pm 21.6 17.2 6.6 37 8.0 WSW 19 24 10 13 1005.2 - 0.0
07/03:50pm 21.9 16.7 5.7 35 8.5 SW 22 28 12 15 1005.1 - 0.0
07/03:40pm 21.9 15.9 5.3 34 8.6 SW 26 30 14 16 1005.2 - 0.0
07/03:30pm 21.4 14.6 5.1 34 8.4 SW 30 37 16 20 1005.3 - 0.0
07/03:20pm 22.6 18.5 6.3 34 8.7 SW 17 22 9 12 1005.6 - 0.0
07/03:10pm 21.4 16.9 6.3 37 8.0 WSW 19 28 10 15 1005.6 - 0.0
07/03:00pm 21.4 16.9 6.1 37 8.0 SW 19 22 10 12 1005.5 - 0.0
07/02:50pm 21.6 16.5 5.8 35 8.3 SW 22 32 12 17 1005.7 - 0.0
07/02:40pm 21.4 15.8 7.0 39 7.7 SW 26 35 14 19 1005.9 - 0.0
07/02:30pm 22.4 16.6 6.3 35 8.5 SW 26 33 14 18 1005.8 - 0.0
07/02:20pm 22.1 17.3 7.2 38 8.0 SW 22 32 12 17 1005.7 - 0.0
07/02:10pm 23.4 19.4 6.7 34 9.0 W 17 22 9 12 1005.9 - 0.0
07/02:00pm 22.8 18.9 7.1 36 8.5 WNW 17 26 9 14 1006.2 - 0.0
07/01:50pm 21.4 18.4 7.8 41 7.4 WNW 13 26 7 14 1006.3 - 0.0
07/01:40pm 21.3 17.7 8.5 43 7.0 NW 17 24 9 13 1006.4 - 0.0
07/01:30pm 21.6 19.3 8.9 44 7.0 WSW 11 26 6 14 1006.4 - 0.0
07/01:20pm 22.6 20.0 7.9 39 8.0 WSW 11 22 6 12 1006.4 - 0.0
07/01:10pm 22.8 20.0 8.7 40 7.8 WSW 13 24 7 13 1006.5 - 0.0
07/01:00pm 21.6 17.4 8.3 42 7.3 SW 20 30 11 16 1006.5 - 0.0
07/12:50pm 20.9 15.4 7.4 41 7.3 WSW 26 33 14 18 1006.7 - 0.0
07/12:40pm 20.9 15.2 6.8 40 7.5 WSW 26 39 14 21 1006.8 - 0.0
07/12:30pm 21.6 17.1 6.9 38 7.9 WSW 20 32 11 17 1006.9 - 0.0
07/12:20pm 21.5 16.1 6.5 37 8.0 SW 24 28 13 15 1006.7 - 0.0
07/12:10pm 21.2 15.5 6.6 38 7.7 SW 26 41 14 22 1007.0 - 0.0
07/12:00pm 21.2 16.1 6.1 37 7.9 WSW 22 24 12 13 1006.9 - 0.0
07/11:50am 21.2 16.6 5.7 36 8.1 WSW 19 26 10 14 1006.8 - 0.0
07/11:40am 21.4 16.5 4.9 34 8.5 WSW 20 26 11 14 1007.0 - 0.0
07/11:30am 20.9 15.2 4.7 34 8.3 WSW 24 30 13 16 1007.1 - 0.0
07/11:20am 20.7 16.0 5.2 36 8.0 WSW 19 24 10 13 1007.4 - 0.0
07/11:10am 20.7 16.0 6.2 39 7.6 WSW 20 37 11 20 1007.4 - 0.0
07/11:00am 20.7 15.9 4.7 35 8.2 WSW 19 24 10 13 1007.4 - 0.0
07/10:40am 20.3 16.4 5.3 37 7.7 WSW 15 26 8 14 1007.6 - 0.0
07/10:30am 19.7 15.6 6.2 41 7.0 SW 17 35 9 19 1007.6 - 0.0
07/10:20am 19.3 14.4 4.0 36 7.6 WSW 19 30 10 16 1007.9 - 0.0
07/10:10am 19.3 14.4 3.9 36 7.7 WSW 19 28 10 15 1008.1 - 0.0
07/10:00am 19.4 15.7 4.6 37 7.5 WSW 13 19 7 10 1008.0 - 0.0
07/09:50am 19.5 16.7 5.3 39 7.3 WSW 9 13 5 7 1007.8 - 0.0
07/09:40am 19.4 16.9 4.8 38 7.4 W 7 11 4 6 1007.8 - 0.0
07/09:30am 18.8 16.7 5.8 42 6.7 WSW 6 11 3 6 1007.9 - 0.0
07/09:20am 18.6 15.7 4.7 40 7.0 WSW 9 15 5 8 1008.2 - 0.0
07/09:10am 18.0 15.5 6.4 46 6.0 WSW 9 15 5 8 1008.2 - 0.0
07/09:00am 17.5 14.5 5.8 46 6.0 SW 11 17 6 9 1008.2 - 0.0
07/08:50am 17.1 14.0 7.2 52 5.2 SW 13 17 7 9 1008.2 - 0.0
07/08:40am 16.9 14.1 6.8 51 5.2 SSW 11 19 6 10 1008.1 - 0.0
07/08:30am 16.9 14.8 6.7 51 5.3 SSW 7 15 4 8 1008.3 - 0.0
07/08:20am 16.8 14.6 6.1 49 5.5 WSW 7 15 4 8 1008.2 - 0.0
07/08:10am 16.8 14.9 6.8 51 5.2 S 6 9 3 5 1008.2 - 0.0
07/08:00am 16.9 16.3 8.8 59 4.4 W 2 6 1 3 1008.2 - 0.0
07/07:50am 16.3 15.4 7.9 57 4.4 NW 2 4 1 2 1008.3 - 0.0
07/07:40am 15.7 14.8 5.9 52 5.0 CALM 0 2 0 1 1008.2 - 0.0
07/07:30am 14.5 13.1 5.7 55 4.4 SW 2 6 1 3 1008.1 - 0.0
07/07:20am 13.2 11.7 5.1 58 4.0 SSW 2 4 1 2 1008.1 - 0.0
07/07:10am 12.2 10.5 5.7 64 3.2 SE 4 4 2 2 1008.1 - 0.0
07/07:00am 12.5 11.2 5.8 63 3.3 NW 2 6 1 3 1008.0 - 0.0
07/06:50am 11.8 9.8 4.5 61 3.5 SSW 4 9 2 5 1007.6 - 0.0
07/06:40am 10.6 8.3 4.6 66 2.8 SSW 6 9 3 5 1007.7 - 0.0
07/06:30am 10.3 8.0 5.0 69 2.5 S 6 7 3 4 1007.8 - 0.0
07/06:20am 10.2 8.4 5.2 71 2.4 S 4 6 2 3 1007.7 - 0.0
07/06:10am 10.3 8.0 4.8 68 2.6 SSW 6 7 3 4 1007.6 - 0.0
07/06:00am 9.9 7.6 4.8 70 2.4 SW 6 9 3 5 1007.7 - 0.0
07/05:50am 10.0 8.1 4.9 70 2.4 SSW 4 11 2 6 1007.7 - 0.0
07/05:40am 10.0 7.7 4.7 69 2.5 SW 6 9 3 5 1007.8 - 0.0
07/05:30am 9.8 7.6 5.2 73 2.2 S 6 7 3 4 1007.8 - 0.0
07/05:20am 10.0 7.7 5.0 71 2.4 SW 6 7 3 4 1007.8 - 0.0
07/05:10am 10.1 7.9 5.1 71 2.4 SSW 6 7 3 4 1007.7 - 0.0
07/05:00am 10.2 8.0 5.1 70 2.4 SW 6 7 3 4 1007.7 - 0.0
07/04:50am 10.4 8.5 4.8 68 2.7 WSW 4 6 2 3 1007.6 - 0.0
07/04:40am 10.3 8.0 4.9 69 2.6 SSW 6 7 3 4 1007.6 - 0.0
07/04:30am 10.5 8.3 5.5 71 2.4 SSW 6 9 3 5 1007.6 - 0.0
07/04:20am 10.7 8.8 4.9 67 2.8 S 4 9 2 5 1007.7 - 0.0
07/04:10am 10.6 9.1 5.1 69 2.6 S 2 4 1 2 1007.7 - 0.0
07/04:00am 10.6 9.2 5.5 71 2.5 ESE 2 4 1 2 1007.8 - 0.0
07/03:50am 10.8 9.4 5.7 71 2.5 ENE 2 4 1 2 1007.8 - 0.0
07/03:40am 11.0 9.7 5.8 70 2.5 NNE 2 6 1 3 1007.8 - 0.0
07/03:30am 11.3 9.5 5.6 68 2.8 ENE 4 7 2 4 1007.7 - 0.0
07/03:20am 11.3 9.9 5.5 67 2.8 NNE 2 6 1 3 1007.8 - 0.0
07/03:10am 11.4 10.0 5.5 67 2.9 ESE 2 4 1 2 1008.0 - 0.0
07/03:00am 11.5 10.5 5.6 67 2.9 CALM 0 2 0 1 1008.2 - 0.0
07/02:50am 11.8 10.0 5.6 66 3.0 NNE 4 4 2 2 1008.2 - 0.0
07/02:40am 11.9 10.8 5.2 63 3.2 CALM 0 0 0 0 1008.3 - 0.0
07/02:30am 11.9 10.5 5.6 65 3.1 ESE 2 4 1 2 1008.5 - 0.0
07/02:20am 12.4 10.7 5.7 63 3.3 N 4 6 2 3 1008.5 - 0.0
07/02:10am 12.8 10.6 5.2 60 3.7 NE 6 6 3 3 1008.6 - 0.0
07/02:00am 12.8 10.6 5.4 60 3.6 NE 6 6 3 3 1008.6 - 0.0
07/01:50am 12.9 11.5 5.6 61 3.6 ENE 2 6 1 3 1008.6 - 0.0
07/01:40am 13.4 12.0 5.3 58 4.0 NE 2 6 1 3 1008.7 - 0.0
07/01:30am 13.3 11.8 5.0 57 4.0 NE 2 4 1 2 1008.9 - 0.0
07/01:20am 13.1 11.7 5.3 59 3.8 NNE 2 4 1 2 1009.1 - 0.0
07/01:10am 13.2 11.8 5.5 59 3.8 NNE 2 4 1 2 1009.0 - 0.0
07/01:00am 13.4 12.0 5.4 58 3.9 NNE 2 4 1 2 1009.0 - 0.0
07/12:50am 13.5 12.5 5.4 58 4.0 CALM 0 4 0 2 1009.3 - 0.0
07/12:40am 13.5 12.4 5.1 57 4.1 CALM 0 2 0 1 1009.2 - 0.0
07/12:30am 13.1 12.1 5.4 59 3.8 CALM 0 2 0 1 1009.3 - 0.0
07/12:20am 13.4 12.4 5.6 59 3.9 CALM 0 2 0 1 1009.3 - 0.0
07/12:10am 13.7 12.3 5.6 58 4.0 N 2 6 1 3 1009.3 - 0.0
07/12:00am 13.7 12.3 5.4 57 4.1 NNE 2 4 1 2 1009.2 - 0.0
 
Date/Time
EDT
Temp
°C
App
Temp
°C
Dew
Point
°C
Rel
Hum
%
Delta-T
°C
Wind Press
QNH
hPa
Press
MSL
hPa
Rain since
9am
mm
Dir  Spd
km/h
Gust
km/h
Spd
kts
Gust
kts
06/11:50pm 13.9 12.5 5.5 57 4.2 N 2 4 1 2 1009.3 - 0.0
06/11:40pm 14.0 12.9 5.2 55 4.3 CALM 0 4 0 2 1009.5 - 0.0
06/11:30pm 13.9 12.4 5.1 55 4.3 SSW 2 4 1 2 1009.8 - 0.0
06/11:20pm 13.9 12.8 5.1 55 4.3 CALM 0 2 0 1 1009.9 - 0.0
06/11:10pm 13.9 12.8 5.3 56 4.2 CALM 0 0 0 0 1010.0 - 0.0
06/11:00pm 13.8 12.7 5.2 56 4.2 CALM 0 4 0 2 1010.1 - 0.0
06/10:50pm 13.7 12.3 5.4 57 4.1 S 2 4 1 2 1010.1 - 0.0
06/10:40pm 13.6 11.8 5.4 57 4.0 S 4 4 2 2 1010.1 - 0.0
06/10:30pm 13.7 12.3 5.5 57 4.1 SSW 2 4 1 2 1010.0 - 0.0
06/10:20pm 13.7 11.9 5.5 57 4.1 S 4 6 2 3 1010.0 - 0.0
06/10:10pm 13.6 11.8 5.5 58 4.0 S 4 6 2 3 1010.0 - 0.0
06/10:00pm 13.9 12.2 5.8 58 4.0 S 4 6 2 3 1010.1 - 0.0
06/09:50pm 14.2 12.1 5.6 56 4.3 SW 6 7 3 4 1010.0 - 0.0
06/09:40pm 14.2 12.0 5.5 56 4.3 SSW 6 7 3 4 1009.9 - 0.0
06/09:30pm 14.3 12.2 5.6 56 4.3 SSW 6 9 3 5 1009.8 - 0.0
06/09:20pm 14.3 12.1 5.5 55 4.4 SW 6 6 3 3 1009.7 - 0.0
06/09:10pm 14.4 12.3 5.6 55 4.4 SW 6 7 3 4 1009.5 - 0.0
06/09:00pm 14.4 12.3 5.9 56 4.3 SSW 6 9 3 5 1009.4 - 0.0
06/08:50pm 14.8 12.7 5.7 54 4.6 SW 6 7 3 4 1009.4 - 0.0
06/08:40pm 15.0 12.7 5.7 53 4.7 WSW 7 13 4 7 1009.4 - 0.0
06/08:30pm 15.0 12.9 5.7 53 4.7 WSW 6 7 3 4 1009.4 - 0.0
06/08:20pm 15.3 13.0 5.7 52 4.8 WSW 7 11 4 6 1009.4 - 0.0
06/08:10pm 15.5 13.1 5.3 50 5.1 W 7 11 4 6 1009.3 - 0.0
06/08:00pm 15.6 12.9 5.4 50 5.1 WSW 9 15 5 8 1009.3 - 0.0
06/07:50pm 15.9 13.2 5.6 50 5.2 WSW 9 15 5 8 1009.2 - 0.0
06/07:30pm 16.9 12.6 5.3 46 5.8 WSW 17 22 9 12 1009.0 - 0.0
06/07:20pm 17.3 14.5 7.1 51 5.3 WSW 11 17 6 9 1008.9 - 0.0
06/07:10pm 17.2 14.0 6.7 50 5.4 WSW 13 20 7 11 1008.8 - 0.0
06/07:00pm 17.5 14.1 6.1 47 5.9 WSW 13 15 7 8 1008.8 - 0.0
06/06:50pm 18.3 15.0 6.5 46 6.1 WSW 13 19 7 10 1008.6 - 0.0
06/06:40pm 18.8 15.3 7.1 46 6.2 WSW 15 22 8 12 1008.4 - 0.0
06/06:30pm 19.4 14.8 6.4 42 6.8 SW 20 30 11 16 1008.2 - 0.0
06/06:20pm 19.2 14.9 7.2 45 6.4 WSW 19 26 10 14 1008.2 - 0.0
06/06:10pm 18.6 14.5 6.4 45 6.3 WSW 17 22 9 12 1008.1 - 0.0
06/06:00pm 17.6 13.5 7.9 53 5.2 SW 19 22 10 12 1007.9 - 0.0
06/05:50pm 18.7 14.3 7.6 48 5.9 SW 20 26 11 14 1007.8 - 0.0
06/05:40pm 20.2 15.0 7.4 43 6.8 SW 24 30 13 16 1007.6 - 0.0
06/05:30pm 20.3 14.2 6.7 41 7.2 SW 28 33 15 18 1007.7 - 0.0
06/05:20pm 20.7 15.0 6.9 40 7.3 SW 26 33 14 18 1007.6 - 0.0
06/05:10pm 21.0 16.8 7.5 41 7.3 SW 19 30 10 16 1007.9 - 0.0
06/05:00pm 21.3 17.4 8.5 43 7.0 SW 19 26 10 14 1007.8 - 0.0
06/04:50pm 21.5 17.3 8.1 42 7.3 WSW 20 24 11 13 1007.9 - 0.0
06/04:40pm 21.2 17.2 8.3 43 7.1 WSW 19 24 10 13 1007.9 - 0.0
06/04:30pm 20.7 16.0 7.7 43 7.0 WSW 22 32 12 17 1008.0 - 0.0
06/04:20pm 21.6 17.6 8.2 42 7.3 WSW 19 20 10 11 1008.1 - 0.0
06/04:10pm 21.5 17.3 7.6 40 7.5 WSW 19 22 10 12 1008.1 - 0.0
06/04:00pm 20.6 16.4 7.4 42 7.1 WSW 19 20 10 11 1008.0 - 0.0
06/03:50pm 22.2 18.2 8.2 40 7.7 WSW 19 24 10 13 1008.1 - 0.0
06/03:40pm 22.1 17.9 7.3 38 8.0 SW 19 26 10 14 1008.0 - 0.0
06/03:30pm 20.9 18.1 8.6 45 6.8 SW 13 19 7 10 1008.1 - 0.0
06/03:20pm 20.1 17.5 9.2 49 6.0 SW 13 19 7 10 1008.2 - 0.0
06/03:10pm 19.7 17.1 7.9 46 6.4 SSW 11 17 6 9 1008.2 - 0.0
06/03:00pm 18.7 16.5 9.2 54 5.2 NW 11 17 6 9 1008.3 - 0.0
06/02:50pm 19.1 16.8 9.0 52 5.5 NNW 11 17 6 9 1008.3 - 0.0
06/02:40pm 19.1 17.1 10.1 56 5.0 NNE 11 20 6 11 1008.3 - 0.0
06/02:30pm 17.6 14.3 9.4 58 4.5 NNE 17 20 9 11 1008.5 - 0.0
06/02:20pm 18.3 15.1 8.6 53 5.2 N 15 20 8 11 1008.5 - 0.0
06/02:10pm 19.4 16.9 9.6 53 5.4 N 13 19 7 10 1008.5 - 0.0
06/02:00pm 20.6 18.5 9.7 49 6.1 N 11 17 6 9 1008.6 - 0.0
06/01:50pm 21.4 19.3 9.6 47 6.6 N 11 19 6 10 1008.8 - 0.0
06/01:40pm 21.7 19.5 9.3 45 6.9 NNW 11 17 6 9 1008.9 - 0.0
06/01:30pm 20.3 18.1 9.5 50 6.0 N 11 13 6 7 1008.9 - 0.0
06/01:20pm 20.4 18.4 8.8 47 6.4 N 9 13 5 7 1009.0 - 0.0
06/01:10pm 20.9 19.0 9.2 47 6.5 N 9 15 5 8 1009.0 - 0.0
06/12:50pm 23.3 20.4 8.1 37 8.4 N 13 19 7 10 1009.1 - 0.0
06/12:40pm 20.9 19.2 9.9 49 6.2 N 9 15 5 8 1009.3 - 0.0
06/12:30pm 21.1 19.1 8.7 45 6.8 N 9 15 5 8 1009.4 - 0.0
06/12:20pm 21.8 21.0 9.7 46 6.8 NNW 4 6 2 3 1009.4 - 0.0
06/12:10pm 21.6 20.0 6.5 37 8.0 NW 4 7 2 4 1009.5 - 0.0
06/12:00pm 21.0 19.5 8.4 44 6.9 NNW 6 9 3 5 1009.6 - 0.0
06/11:50am 20.8 18.5 7.6 42 7.1 N 9 11 5 6 1009.7 - 0.0
06/11:40am 19.7 17.7 7.2 44 6.6 NNW 7 11 4 6 1009.7 - 0.0
06/11:30am 18.7 16.9 7.9 49 5.8 N 7 13 4 7 1009.8 - 0.0
06/11:20am 19.2 17.7 8.5 50 5.8 NNE 6 11 3 6 1009.8 - 0.0
06/11:10am 20.4 18.6 7.0 41 7.1 N 6 9 3 5 1009.8 - 0.0
06/11:00am 19.4 17.1 7.6 46 6.3 NE 9 15 5 8 1009.9 - 0.0
06/10:50am 19.8 18.0 7.9 46 6.4 N 7 11 4 6 1009.9 - 0.0
06/10:40am 17.8 14.7 7.4 50 5.5 NNE 13 17 7 9 1010.0 - 0.0
06/10:30am 17.1 13.2 6.9 51 5.3 NNE 17 19 9 10 1009.9 - 0.0
06/10:20am 19.3 16.9 6.8 44 6.6 N 9 19 5 10 1009.8 - 0.0
06/10:10am 19.1 17.5 6.4 43 6.6 S 4 6 2 3 1009.9 - 0.0
06/10:00am 17.5 15.3 5.2 44 6.2 SSE 6 7 3 4 1010.0 - 0.0
06/09:50am 15.7 13.8 6.6 54 4.7 SW 6 7 3 4 1010.1 - 0.0
06/09:40am 15.9 14.4 8.3 60 4.0 WSW 6 6 3 3 1010.1 - 0.0
06/09:30am 17.1 15.4 7.4 53 5.1 WSW 6 9 3 5 1010.0 - 0.0
06/09:20am 19.0 17.5 7.0 45 6.3 NW 4 7 2 4 1010.0 - 0.0
06/09:10am 18.2 17.0 8.0 51 5.5 NW 4 6 2 3 1010.1 - 0.0
06/09:00am 17.8 16.3 6.6 48 5.8 WSW 4 6 2 3 1010.2 - 0.0
06/08:50am 17.0 15.5 6.9 51 5.2 W 4 7 2 4 1010.2 - 0.0
06/08:40am 16.3 14.4 6.8 53 4.9 WSW 6 11 3 6 1010.2 - 0.0
06/08:30am 15.7 13.4 7.4 57 4.3 S 9 17 5 9 1010.1 - 0.0
06/08:20am 15.3 11.9 5.9 53 4.7 S 13 17 7 9 1010.2 - 0.0
06/08:10am 15.5 13.6 7.5 59 4.2 SSW 7 13 4 7 1010.2 - 0.0
06/08:00am 15.2 13.5 6.0 54 4.6 WSW 4 7 2 4 1010.2 - 0.0
06/07:50am 14.7 13.2 6.9 59 4.0 SW 4 6 2 3 1010.1 - 0.0
06/07:40am 14.1 12.3 7.1 62 3.6 SSW 6 7 3 4 1010.0 - 0.0
06/07:30am 13.5 11.6 6.8 64 3.4 SSW 6 7 3 4 1009.9 - 0.0
06/07:20am 13.0 10.8 6.3 64 3.4 S 7 11 4 6 1009.8 - 0.0
06/07:10am 12.6 10.4 6.4 66 3.1 S 7 11 4 6 1009.8 - 0.0
06/07:00am 12.2 10.1 6.0 66 3.1 S 6 7 3 4 1009.7 - 0.0
06/06:50am 11.5 8.8 5.4 66 3.0 S 9 15 5 8 1009.6 - 0.0
06/06:40am 10.9 8.6 5.9 71 2.4 S 7 13 4 7 1009.7 - 0.0
06/06:30am 10.8 8.8 6.2 73 2.3 SSE 6 9 3 5 1009.7 - 0.0
06/06:20am 10.9 8.2 5.8 71 2.5 S 9 11 5 6 1009.7 - 0.0
06/06:10am 10.8 8.5 5.6 70 2.5 S 7 11 4 6 1009.6 - 0.0
06/06:00am 10.5 8.3 5.4 70 2.5 S 6 7 3 4 1009.5 - 0.0
06/05:50am 10.6 8.5 5.6 71 2.4 S 6 9 3 5 1009.4 - 0.0
06/05:40am 10.6 8.3 5.7 71 2.4 S 7 13 4 7 1009.2 - 0.0
06/05:30am 10.6 8.3 5.9 73 2.3 S 7 9 4 5 1009.1 - 0.0
06/05:20am 10.7 8.0 5.8 72 2.4 S 9 15 5 8 1009.1 - 0.0
06/05:10am 10.6 8.0 6.0 73 2.2 S 9 13 5 7 1009.0 - 0.0
06/05:00am 10.6 8.4 6.0 73 2.2 S 7 11 4 6 1008.9 - 0.0
06/04:50am 10.5 8.3 6.2 75 2.1 SSE 7 11 4 6 1008.8 - 0.0
06/04:40am 10.5 7.6 6.3 75 2.1 S 11 13 6 7 1008.7 - 0.0
06/04:30am 10.6 7.7 6.3 75 2.1 S 11 13 6 7 1008.7 - 0.0
06/04:20am 10.8 8.4 6.8 76 2.0 S 9 13 5 7 1008.6 - 0.0
06/04:10am 11.1 9.2 6.6 74 2.2 S 6 7 3 4 1008.7 - 0.0
06/04:00am 11.2 8.3 6.7 74 2.2 S 11 15 6 8 1008.7 - 0.0
06/03:50am 11.2 7.5 6.5 73 2.3 S 15 17 8 9 1008.7 - 0.0
06/03:40am 10.5 8.0 6.5 76 2.0 SSE 9 13 5 7 1008.7 - 0.0
06/03:30am 10.5 8.7 7.2 80 1.7 SSW 6 6 3 3 1008.8 - 0.0
06/03:20am 10.6 9.0 8.0 84 1.3 SSW 6 7 3 4 1008.9 - 0.0
06/03:10am 10.9 9.0 7.4 79 1.8 S 7 11 4 6 1008.9 - 0.0
06/03:00am 10.6 8.2 6.9 78 1.8 S 9 17 5 9 1008.9 - 0.0
06/02:50am 10.4 9.3 8.5 88 1.0 S 4 6 2 3 1009.1 - 0.0
06/02:40am 10.4 8.9 8.5 88 1.0 SSW 6 6 3 3 1009.1 - 0.0
06/02:30am 10.3 8.8 8.6 89 0.9 SSE 6 6 3 3 1009.2 - 0.0
06/02:20am 10.4 9.7 8.6 89 0.9 SW 2 4 1 2 1009.3 - 0.0
06/02:10am 10.7 10.4 8.5 86 1.1 CALM 0 2 0 1 1009.2 - 0.0
06/02:00am 10.9 9.8 8.4 84 1.3 SSW 4 7 2 4 1009.2 - 0.0
06/01:50am 10.9 9.1 8.0 82 1.5 ENE 7 11 4 6 1009.2 - 0.0
06/01:40am 10.8 9.2 8.2 84 1.3 NE 6 7 3 4 1009.3 - 0.0
06/01:30am 11.0 9.3 8.5 84 1.3 NNE 7 7 4 4 1009.4 - 0.0
06/01:20am 11.2 10.0 8.2 82 1.5 NE 4 9 2 5 1009.4 - 0.0
06/01:10am 10.8 9.7 8.5 86 1.2 SSE 4 6 2 3 1009.4 - 0.0
06/01:00am 10.9 9.9 8.7 86 1.1 SSW 4 6 2 3 1009.6 - 0.0
06/12:50am 11.4 10.4 8.8 84 1.4 NW 4 6 2 3 1009.7 - 0.0
06/12:40am 11.7 11.0 8.6 81 1.6 WNW 2 4 1 2 1009.7 - 0.0
06/12:30am 11.7 11.0 8.4 80 1.7 ESE 2 7 1 4 1009.6 - 0.0
06/12:20am 11.5 9.9 8.1 79 1.7 S 6 9 3 5 1009.8 - 0.0
06/12:10am 11.5 10.0 8.3 81 1.7 S 6 6 3 3 1009.7 - 0.0
06/12:00am 11.8 10.6 8.2 78 1.9 S 4 6 2 3 1009.7 - 0.0
 
Date/Time
EDT
Temp
°C
App
Temp
°C
Dew
Point
°C
Rel
Hum
%
Delta-T
°C
Wind Press
QNH
hPa
Press
MSL
hPa
Rain since
9am
mm
Dir  Spd
km/h
Gust
km/h
Spd
kts
Gust
kts
05/11:50pm 13.0 11.8 8.0 71 2.6 W 4 6 2 3 1009.7 - 0.0
05/11:40pm 14.0 13.0 7.5 65 3.4 NNW 2 4 1 2 1009.7 - 0.0
05/11:30pm 14.6 12.7 6.8 59 4.0 SSW 6 9 3 5 1009.8 - 0.0
05/11:20pm 14.9 12.0 6.7 58 4.2 S 11 13 6 7 1009.8 - 0.0
05/11:10pm 14.8 11.5 6.5 57 4.2 S 13 17 7 9 1009.8 - 0.0
05/11:00pm 14.5 11.6 6.4 58 4.1 S 11 19 6 10 1009.9 - 0.0
05/10:50pm 14.8 12.4 7.2 60 3.9 SSW 9 11 5 6 1009.8 - 0.0
05/10:40pm 15.0 11.7 6.3 56 4.4 S 13 17 7 9 1009.9 - 0.0
05/10:30pm 14.8 12.0 6.8 58 4.1 SSE 11 15 6 8 1010.0 - 0.0
05/10:20pm 14.6 11.4 6.8 59 4.0 SSE 13 15 7 8 1009.8 - 0.0
05/10:10pm 15.0 12.2 6.9 58 4.2 SSE 11 13 6 7 1009.6 - 0.0
05/10:00pm 15.1 13.2 6.8 57 4.3 SE 6 11 3 6 1009.5 - 0.0
05/09:50pm 15.3 13.6 7.5 59 4.1 ENE 6 7 3 4 1009.4 - 0.0
05/09:40pm 15.1 13.1 7.0 58 4.2 E 7 9 4 5 1009.2 - 0.0
05/09:30pm 14.9 13.5 7.4 61 3.9 S 4 9 2 5 1009.0 - 0.0
05/09:20pm 15.1 13.2 7.4 60 4.0 SW 7 17 4 9 1008.9 - 0.0
05/09:10pm 15.4 12.0 7.8 60 4.0 SW 15 22 8 12 1008.7 - 0.0
05/09:00pm 15.7 11.1 8.2 61 4.0 SW 22 26 12 14 1008.5 - 0.0
05/08:50pm 16.0 11.0 8.2 60 4.1 SW 24 26 13 14 1008.4 - 0.0
05/08:40pm 15.9 11.9 8.1 60 4.1 SW 19 22 10 12 1008.5 - 0.0
05/08:30pm 16.3 12.3 8.4 59 4.2 SW 19 22 10 12 1008.6 - 0.0
05/08:20pm 16.3 12.5 7.7 56 4.5 SW 17 24 9 13 1008.6 - 0.0
05/08:10pm 16.4 12.9 8.6 60 4.2 SW 17 19 9 10 1008.6 - 0.0
05/08:00pm 16.5 12.6 7.3 54 4.8 SW 17 22 9 12 1008.7 - 0.0
05/07:50pm 16.7 13.4 8.0 56 4.6 SW 15 22 8 12 1008.5 - 0.0
05/07:40pm 16.9 14.6 7.4 53 5.0 WSW 9 13 5 7 1008.4 - 0.0
05/07:30pm 17.3 14.7 7.9 54 5.0 SW 11 15 6 8 1008.4 - 0.0
05/07:20pm 17.5 14.6 8.0 53 5.1 WSW 13 19 7 10 1008.3 - 0.0
05/07:10pm 18.0 15.0 7.8 51 5.4 SW 13 19 7 10 1008.4 - 0.0
05/07:00pm 18.4 15.7 8.8 53 5.2 WSW 13 17 7 9 1008.3 - 0.0
05/06:50pm 18.7 17.2 10.5 59 4.6 WSW 9 15 5 8 1008.3 - 0.0
05/06:40pm 18.6 16.6 8.8 53 5.3 WSW 9 11 5 6 1008.1 - 0.0
05/06:30pm 18.0 15.8 8.0 52 5.3 WSW 9 13 5 7 1008.2 - 0.0
05/06:20pm 17.9 16.3 8.1 52 5.2 WSW 6 9 3 5 1008.1 - 0.0
05/06:10pm 18.3 15.8 8.1 51 5.5 SW 11 15 6 8 1008.1 - 0.0
05/06:00pm 19.0 16.3 8.8 51 5.6 SSW 13 20 7 11 1008.0 - 0.0
05/05:50pm 17.9 14.2 9.3 57 4.7 SSW 19 22 10 12 1008.0 - 0.0
05/05:40pm 16.6 12.4 9.7 63 3.8 SSW 22 24 12 13 1008.0 - 0.0
05/05:30pm 17.1 12.4 10.7 66 3.6 SSW 26 33 14 18 1008.1 - 0.0
05/05:20pm 19.7 14.4 9.9 53 5.5 SW 28 35 15 19 1008.0 - 0.0
05/05:10pm 20.6 14.8 6.3 39 7.5 SSW 26 37 14 20 1007.8 - 0.0
05/05:00pm 20.8 15.0 6.3 39 7.6 SW 26 32 14 17 1007.9 - 0.0
05/04:50pm 21.3 17.3 8.1 42 7.2 SW 19 24 10 13 1007.9 - 0.0
05/04:40pm 21.7 17.0 6.2 36 8.2 WSW 20 28 11 15 1007.8 - 0.0
05/04:30pm 22.6 18.0 5.8 33 8.9 W 19 24 10 13 1007.7 - 0.0
05/04:20pm 24.1 19.4 5.2 29 9.9 WSW 19 26 10 14 1007.5 - 0.0
05/04:10pm 24.0 18.5 5.9 31 9.6 WSW 24 30 13 16 1007.6 - 0.0
05/04:00pm 24.7 19.7 6.5 31 9.8 SW 22 30 12 16 1007.6 - 0.0
05/03:50pm 24.0 18.9 6.2 31 9.5 WSW 22 35 12 19 1007.6 - 0.0
05/03:40pm 23.5 17.2 5.7 31 9.4 SW 28 33 15 18 1007.6 - 0.0
05/03:30pm 23.6 16.8 6.8 34 9.1 SW 32 37 17 20 1007.4 - 0.0
05/03:20pm 24.0 17.2 7.1 33 9.2 SW 32 41 17 22 1007.2 - 0.0
05/03:10pm 23.9 17.2 7.5 35 9.0 SW 32 39 17 21 1007.3 - 0.0
05/03:00pm 24.5 21.1 10.6 41 8.0 SW 19 22 10 12 1007.5 - 0.0
05/02:50pm 25.2 24.3 12.7 45 7.5 WNW 9 15 5 8 1007.6 - 0.0
05/02:40pm 25.7 23.9 10.8 39 8.7 WNW 11 15 6 8 1007.7 - 0.0
05/02:30pm 24.7 22.9 12.0 45 7.5 W 13 20 7 11 1008.0 - 0.0
05/02:20pm 24.4 22.7 10.0 40 8.2 W 9 22 5 12 1008.3 - 0.0
05/02:10pm 23.9 21.6 11.8 46 7.1 W 15 26 8 14 1008.7 - 0.0
05/02:00pm 23.6 20.3 11.0 45 7.3 SW 19 24 10 13 1008.9 - 0.0
05/01:50pm 23.7 23.2 12.8 50 6.5 WSW 7 11 4 6 1009.0 - 0.0
05/01:40pm 23.7 22.7 12.3 48 6.8 NW 9 15 5 8 1009.0 - 0.0
05/01:30pm 23.8 22.4 10.9 44 7.5 N 9 15 5 8 1009.0 - 0.0
05/01:20pm 23.7 23.3 14.2 55 5.8 NW 9 13 5 7 1009.4 - 0.0
05/01:10pm 22.9 21.4 12.0 50 6.4 WNW 11 26 6 14 1009.5 - 0.0
05/01:00pm 22.6 21.2 10.8 47 6.8 W 9 13 5 7 1009.8 - 0.0
05/12:50pm 22.1 19.0 10.3 47 6.7 WSW 17 28 9 15 1009.8 - 0.0
05/12:40pm 22.0 20.7 11.3 50 6.2 W 9 15 5 8 1010.0 - 0.0
05/12:30pm 21.7 19.0 10.4 48 6.4 W 15 22 8 12 1010.1 - 0.0
05/12:20pm 21.6 17.9 9.4 45 6.8 WNW 19 32 10 17 1010.0 - 0.0
05/12:10pm 21.6 18.3 9.5 46 6.8 W 17 26 9 14 1010.3 - 0.0
05/12:00pm 21.8 19.5 10.3 48 6.5 W 13 20 7 11 1010.4 - 0.0
05/11:50am 22.1 20.4 11.2 50 6.3 W 11 22 6 12 1010.4 - 0.0
05/11:40am 22.3 20.5 10.8 48 6.6 WSW 11 15 6 8 1010.6 - 0.0
05/11:30am 22.9 20.9 10.1 44 7.3 WSW 11 24 6 13 1010.5 - 0.0
05/11:20am 24.0 21.4 10.7 43 7.7 WSW 15 22 8 12 1010.7 - 0.0
05/11:10am 25.9 23.9 11.6 40 8.5 WSW 13 19 7 10 1010.7 - 0.0
05/11:00am 26.2 24.2 10.2 36 9.3 W 11 19 6 10 1010.5 - 0.0
05/10:50am 25.0 23.0 11.6 43 7.9 W 13 17 7 9 1010.5 - 0.0
05/10:40am 24.1 20.6 10.2 41 8.0 SW 19 26 10 14 1010.6 - 0.0
05/10:30am 23.4 19.1 9.3 40 7.9 SW 22 33 12 18 1010.8 - 0.0
05/10:20am 23.2 19.2 10.5 44 7.3 SW 22 30 12 16 1011.0 - 0.0
05/10:10am 22.5 17.3 10.3 46 7.0 SW 28 37 15 20 1011.0 - 0.0
05/10:00am 22.1 17.5 9.7 45 7.0 WSW 24 32 13 17 1011.2 - 0.0
05/09:50am 21.3 18.3 10.8 51 6.0 WSW 17 22 9 12 1011.5 - 0.0
05/09:40am 22.0 18.8 10.0 46 6.8 WSW 17 22 9 12 1011.6 - 0.0
05/09:30am 22.7 19.7 10.7 46 6.9 SW 17 22 9 12 1011.7 - 0.0
05/09:20am 22.8 19.3 10.9 47 6.9 WSW 20 26 11 14 1011.7 - 0.0
05/09:10am 22.4 18.9 10.9 48 6.6 SW 20 24 11 13 1011.7 - 0.0
05/09:00am 22.2 21.6 11.8 51 6.1 WSW 6 15 3 8 1011.8 - 0.0
05/08:50am 21.3 20.8 11.9 55 5.5 WSW 6 7 3 4 1011.8 - 0.0
05/08:40am 20.9 20.0 12.6 59 4.9 NE 9 15 5 8 1011.8 - 0.0
05/08:30am 20.5 19.8 13.1 62 4.4 NE 9 11 5 6 1012.0 - 0.0
05/08:20am 20.0 18.6 12.3 61 4.5 NE 11 13 6 7 1012.0 - 0.0
05/08:10am 20.2 19.7 12.6 61 4.5 NE 7 9 4 5 1012.1 - 0.0
05/08:00am 19.2 19.4 14.1 72 3.1 ENE 6 11 3 6 1012.0 - 0.0
05/07:50am 19.1 18.4 13.1 68 3.5 NNE 9 15 5 8 1012.0 - 0.0
05/07:40am 18.7 16.6 11.3 62 4.2 NE 13 15 7 8 1011.9 - 0.0
05/07:30am 19.1 17.5 11.4 61 4.4 NNE 11 13 6 7 1011.9 - 0.0
05/07:20am 18.5 17.2 11.4 63 4.0 NE 9 11 5 6 1012.0 - 0.0
05/07:10am 18.3 17.2 10.8 61 4.2 NE 7 7 4 4 1012.2 - 0.0
05/07:00am 17.9 17.0 10.8 63 4.0 NE 6 7 3 4 1012.3 - 0.0
05/06:50am 17.2 15.9 9.9 62 4.0 NE 7 9 4 5 1012.2 - 0.0
05/06:40am 16.5 14.2 10.3 67 3.4 NE 13 13 7 7 1012.2 - 0.0
05/06:30am 16.5 14.9 10.1 66 3.5 NE 9 13 5 7 1012.2 - 0.0

Other formats

Comma delimited format used in spreadsheet applications
http://www.bom.gov.au/fwo/IDN60801/IDN60801.99762.axf

JavaScript Object Notation format (JSON) in row-major order
http://www.bom.gov.au/fwo/IDN60801/IDN60801.99762.json

Data quality

Most of these data are generated automatically and are frequently updated. Quality checks on data are not normally performed. It is possible for incorrect values to appear. Refer to information at About Latest Weather Observations and please check the disclaimer before using these data.